Airport View

Enter AWOS ICAO identifier for current METAR.

ex. KFNL

KXSA 212315Z AUTO 00000KT 10SM CLR 24/21 A3018 RMK AO2 T02380209

21 Sep 2019 23:36

Frequency: 125.775

Phone: 804-445-8724

Other Area AWOS: KFYJ - KW96 - KW75 - KOFP

TAF KRIC 211720Z 2118/2218 20007KT P6SM SKC FM212300 17004KT P6SM SCT080 FM221400 20004KT P6SM SKC